Time;durP1;ratioP1;P1;durP2;ratioP2;P2;SDS_P1;SDS_P2;PMS_P1;PMS_P2;Temp;Humidity;BMP_temperature;BMP_pressure;BME280_temperature;BME280_humidity;BME280_pressure;Samples;Min_cycle;Max_cycle;Signal;HPM_P1;HPM_P2
2022/07/09 00:02:34;;;;;;;5.53;1.40;;;25.20;39.00;;;;;;6125072;28;20023;-76
2022/07/09 00:05:36;;;;;;;6.40;1.02;;;25.10;39.10;;;;;;6122812;28;20035;-76
2022/07/09 00:08:36;;;;;;;6.47;1.40;;;24.90;39.20;;;;;;6141650;29;20110;-76
2022/07/09 00:11:37;;;;;;;4.93;1.05;;;24.90;39.40;;;;;;6114725;29;20043;-76
2022/07/09 00:14:38;;;;;;;5.63;1.20;;;24.90;39.50;;;;;;6105040;29;20087;-76
2022/07/09 00:17:39;;;;;;;10.93;1.50;;;24.90;39.70;;;;;;6113823;29;20059;-76
2022/07/09 00:20:40;;;;;;;4.40;1.67;;;24.80;39.80;;;;;;6122079;29;20023;-76
2022/07/09 00:23:41;;;;;;;8.57;1.50;;;24.80;40.00;;;;;;6131442;29;20456;-76
2022/07/09 00:26:41;;;;;;;6.43;1.13;;;24.90;40.10;;;;;;6131735;29;20491;-77
2022/07/09 00:29:42;;;;;;;6.20;1.42;;;24.90;40.00;;;;;;6135252;28;20135;-76
2022/07/09 00:32:43;;;;;;;2.90;1.17;;;25.00;39.90;;;;;;6117058;29;20408;-76
2022/07/09 00:35:44;;;;;;;5.57;1.75;;;25.00;39.90;;;;;;6133584;29;20460;-75
2022/07/09 00:38:45;;;;;;;1.48;1.08;;;25.10;40.00;;;;;;6141341;28;20078;-75
2022/07/09 00:41:46;;;;;;;8.07;1.40;;;25.20;39.90;;;;;;6120918;29;20424;-76
2022/07/09 00:44:46;;;;;;;2.35;1.20;;;25.30;39.80;;;;;;6132620;29;20410;-75
2022/07/09 00:47:47;;;;;;;5.15;1.38;;;25.30;39.80;;;;;;6131495;28;20039;-76
2022/07/09 00:50:49;;;;;;;10.27;1.70;;;25.30;39.70;;;;;;6104163;28;20074;-75
2022/07/09 00:53:50;;;;;;;3.90;1.23;;;25.20;39.60;;;;;;6115261;28;20080;-75
2022/07/09 00:56:54;;;;;;;4.22;1.23;;;25.10;39.70;;;;;;6136383;29;20032;-75
2022/07/09 00:59:56;;;;;;;4.60;1.15;;;25.00;39.80;;;;;;6131859;28;20055;-75
2022/07/09 01:02:57;;;;;;;5.20;1.38;;;24.90;40.00;;;;;;6133133;29;20031;-75
2022/07/09 01:05:58;;;;;;;2.30;1.02;;;24.80;40.10;;;;;;6132062;28;20031;-75
2022/07/09 01:08:59;;;;;;;4.40;1.20;;;24.70;40.20;;;;;;6130488;28;20357;-75
2022/07/09 01:12:00;;;;;;;5.75;1.95;;;24.70;40.20;;;;;;6119799;29;20472;-76
2022/07/09 01:15:01;;;;;;;3.65;1.10;;;24.60;40.30;;;;;;6124909;29;20039;-76
2022/07/09 01:18:03;;;;;;;3.95;1.30;;;24.50;40.40;;;;;;6112758;29;20044;-76
2022/07/09 01:21:04;;;;;;;2.35;1.42;;;24.50;40.60;;;;;;6113437;29;20054;-75
2022/07/09 01:24:05;;;;;;;1.65;1.30;;;24.40;40.90;;;;;;6121838;29;20470;-75
2022/07/09 01:27:07;;;;;;;3.15;1.17;;;24.50;40.80;;;;;;6145616;28;20039;-75
2022/07/09 01:30:08;;;;;;;2.97;1.42;;;24.50;40.70;;;;;;6139134;28;20416;-75
2022/07/09 01:33:09;;;;;;;14.15;1.48;;;24.40;40.60;;;;;;6110179;29;20457;-76
2022/07/09 01:36:11;;;;;;;4.03;1.40;;;24.30;40.60;;;;;;6139790;29;20035;-75
2022/07/09 01:39:12;;;;;;;2.67;1.17;;;24.30;40.70;;;;;;6137664;29;20050;-77
2022/07/09 01:42:12;;;;;;;5.43;1.50;;;24.20;40.80;;;;;;6138875;29;20031;-76
2022/07/09 01:45:14;;;;;;;2.53;1.10;;;24.20;40.90;;;;;;6134399;29;20087;-75
2022/07/09 01:48:15;;;;;;;6.47;1.02;;;24.10;40.80;;;;;;6140234;29;20543;-75
2022/07/09 01:51:16;;;;;;;4.22;1.30;;;24.10;40.90;;;;;;6134202;29;20063;-75
2022/07/09 01:54:17;;;;;;;1.27;0.98;;;24.00;40.90;;;;;;6133747;29;20058;-76
2022/07/09 01:57:18;;;;;;;4.45;1.40;;;24.00;40.90;;;;;;6134748;29;20031;-76
2022/07/09 02:00:19;;;;;;;3.60;1.38;;;23.90;41.00;;;;;;6136003;28;20035;-76
2022/07/09 02:03:20;;;;;;;6.05;1.45;;;23.90;41.10;;;;;;6129677;28;20043;-76
2022/07/09 02:06:20;;;;;;;5.00;1.30;;;23.80;41.30;;;;;;6132612;28;20035;-76
2022/07/09 02:09:21;;;;;;;6.53;1.25;;;23.70;41.90;;;;;;6129740;29;20426;-76
2022/07/09 02:12:22;;;;;;;0.80;0.80;;;23.70;41.30;;;;;;6120598;29;20122;-76
2022/07/09 02:15:23;;;;;;;1.85;1.23;;;23.70;41.20;;;;;;6121276;29;20437;-76
2022/07/09 02:18:24;;;;;;;1.27;1.02;;;23.70;40.80;;;;;;6132715;28;20039;-76
2022/07/09 02:21:24;;;;;;;1.73;1.08;;;23.70;40.60;;;;;;6145959;29;20087;-76
2022/07/09 02:24:25;;;;;;;7.95;1.30;;;23.70;40.40;;;;;;6120244;29;20042;-75
2022/07/09 02:27:26;;;;;;;2.15;1.10;;;23.70;40.30;;;;;;6135422;29;20076;-75
2022/07/09 02:30:28;;;;;;;2.25;0.90;;;23.70;40.30;;;;;;6142406;28;20043;-75
2022/07/09 02:33:31;;;;;;;3.83;1.25;;;23.70;40.40;;;;;;6137182;29;20106;-75
2022/07/09 02:36:31;;;;;;;5.95;1.13;;;23.70;40.40;;;;;;6141232;29;20035;-75
2022/07/09 02:39:33;;;;;;;2.30;1.05;;;23.70;40.30;;;;;;6143570;28;20066;-75
2022/07/09 02:42:35;;;;;;;3.53;1.38;;;23.70;40.30;;;;;;6135882;28;20015;-75
2022/07/09 02:45:36;;;;;;;1.98;0.98;;;23.70;40.50;;;;;;6135134;29;20479;-76
2022/07/09 02:48:38;;;;;;;2.05;1.08;;;23.60;40.70;;;;;;6136998;29;20032;-76
2022/07/09 02:51:38;;;;;;;1.95;1.00;;;23.60;40.70;;;;;;6143430;29;20086;-77
2022/07/09 02:54:39;;;;;;;6.28;1.00;;;23.60;40.60;;;;;;6136720;28;20028;-75
2022/07/09 02:57:40;;;;;;;2.33;0.95;;;23.50;40.50;;;;;;6141418;28;20071;-75
2022/07/09 03:00:41;;;;;;;5.22;1.30;;;23.40;40.50;;;;;;6135335;28;20039;-75
2022/07/09 03:03:42;;;;;;;1.10;1.00;;;23.40;40.60;;;;;;6140083;29;20431;-76
2022/07/09 03:06:43;;;;;;;3.92;1.13;;;23.40;40.60;;;;;;6131274;28;20035;-76
2022/07/09 03:09:43;;;;;;;1.38;1.00;;;23.40;40.70;;;;;;6142674;28;20119;-76
2022/07/09 03:12:44;;;;;;;9.20;1.33;;;23.30;40.60;;;;;;6134738;28;20055;-75
2022/07/09 03:15:45;;;;;;;1.70;0.90;;;23.30;40.70;;;;;;6135738;29;20024;-75
2022/07/09 03:18:46;;;;;;;3.47;1.15;;;23.30;40.60;;;;;;6130398;28;20027;-75
2022/07/09 03:21:48;;;;;;;2.63;1.17;;;23.30;40.60;;;;;;6139658;28;20031;-75
2022/07/09 03:24:48;;;;;;;2.55;1.10;;;23.30;40.70;;;;;;6133249;28;20023;-76
2022/07/09 03:27:49;;;;;;;2.00;1.10;;;23.30;40.70;;;;;;6142304;29;20044;-76
2022/07/09 03:30:50;;;;;;;2.92;1.17;;;23.30;40.80;;;;;;6112004;28;20059;-76
2022/07/09 03:33:53;;;;;;;2.22;1.10;;;23.20;40.80;;;;;;6121115;29;20659;-76
2022/07/09 03:36:54;;;;;;;1.77;1.02;;;23.20;41.00;;;;;;6134497;28;20341;-76
2022/07/09 03:39:54;;;;;;;4.20;1.33;;;23.20;41.20;;;;;;6105996;29;20027;-76
2022/07/09 03:42:55;;;;;;;2.75;1.27;;;23.10;41.50;;;;;;6116129;28;20511;-77
2022/07/09 03:45:56;;;;;;;3.40;1.20;;;23.10;41.70;;;;;;6121741;29;20046;-75
2022/07/09 03:48:57;;;;;;;2.95;1.02;;;23.00;42.10;;;;;;6138196;29;20634;-75
2022/07/09 03:51:58;;;;;;;1.10;1.00;;;22.90;42.20;;;;;;6143001;28;20050;-75
2022/07/09 03:54:59;;;;;;;2.42;1.27;;;22.90;42.40;;;;;;6130348;29;20031;-75
2022/07/09 03:58:00;;;;;;;2.80;1.20;;;22.80;42.50;;;;;;6139170;28;20082;-76
2022/07/09 04:01:00;;;;;;;2.28;1.23;;;22.80;42.70;;;;;;6127238;29;20522;-76
2022/07/09 04:04:01;;;;;;;8.00;1.20;;;22.80;42.80;;;;;;6123113;28;20118;-76
2022/07/09 04:07:02;;;;;;;2.47;1.45;;;22.80;43.00;;;;;;6124025;29;20491;-76
2022/07/09 04:10:04;;;;;;;4.82;1.52;;;22.80;43.10;;;;;;6115487;29;20039;-76
2022/07/09 04:13:05;;;;;;;3.78;1.30;;;22.80;43.30;;;;;;6122539;29;20031;-77
2022/07/09 04:16:06;;;;;;;5.22;1.27;;;22.80;43.40;;;;;;6132698;29;20031;-76
2022/07/09 04:19:07;;;;;;;3.53;1.50;;;22.80;43.50;;;;;;6115702;29;20395;-76
2022/07/09 04:22:08;;;;;;;3.92;1.90;;;22.80;43.70;;;;;;6137454;28;20035;-76
2022/07/09 04:25:09;;;;;;;3.63;2.15;;;22.70;43.90;;;;;;6133166;28;20441;-74
2022/07/09 04:28:10;;;;;;;6.13;2.80;;;22.70;44.00;;;;;;6131726;29;20047;-76
2022/07/09 04:31:11;;;;;;;7.40;3.15;;;22.70;44.20;;;;;;6135655;28;20036;-75
2022/07/09 04:34:12;;;;;;;4.10;2.45;;;22.70;44.30;;;;;;6096839;29;20034;-75
2022/07/09 04:37:13;;;;;;;6.10;2.13;;;22.60;44.30;;;;;;6122145;29;20042;-75
2022/07/09 04:40:14;;;;;;;3.25;2.22;;;22.60;44.30;;;;;;6117364;29;20050;-75
2022/07/09 04:43:15;;;;;;;3.67;2.35;;;22.60;44.30;;;;;;6135963;28;20027;-75
2022/07/09 04:46:21;;;;;;;6.35;2.72;;;22.70;44.20;;;;;;6139379;29;20463;-75
2022/07/09 04:49:24;;;;;;;5.18;2.60;;;22.60;44.00;;;;;;6137989;29;20430;-75
2022/07/09 04:52:26;;;;;;;4.43;2.10;;;22.70;43.80;;;;;;6141521;29;20475;-75
2022/07/09 04:55:27;;;;;;;4.80;2.08;;;22.70;43.60;;;;;;6099331;29;20040;-75
2022/07/09 04:58:29;;;;;;;3.72;1.73;;;22.80;43.40;;;;;;6142013;29;20043;-76
2022/07/09 05:01:30;;;;;;;4.22;2.05;;;22.80;43.30;;;;;;6114762;28;20035;-75
2022/07/09 05:04:31;;;;;;;3.25;1.85;;;22.90;43.20;;;;;;6137003;29;20020;-75
2022/07/09 05:07:33;;;;;;;2.70;1.60;;;22.90;43.10;;;;;;6124126;29;20040;-75
2022/07/09 05:10:34;;;;;;;1.40;1.30;;;22.90;43.00;;;;;;6103224;29;20039;-76
2022/07/09 05:13:36;;;;;;;3.47;1.40;;;22.90;43.00;;;;;;6122856;28;20110;-75
2022/07/09 05:16:37;;;;;;;3.03;1.45;;;22.90;43.00;;;;;;6136826;28;20150;-76
2022/07/09 05:19:37;;;;;;;2.80;1.60;;;22.90;43.00;;;;;;6117737;29;20024;-76
2022/07/09 05:22:39;;;;;;;2.00;1.40;;;22.90;43.00;;;;;;6141877;29;20038;-76
2022/07/09 05:25:39;;;;;;;1.92;1.40;;;22.90;43.00;;;;;;6137625;28;20504;-76
2022/07/09 05:28:41;;;;;;;3.67;1.50;;;22.90;43.10;;;;;;6140982;28;20083;-76
2022/07/09 05:31:42;;;;;;;3.13;1.40;;;23.00;43.20;;;;;;6136675;28;20069;-77
2022/07/09 05:34:44;;;;;;;3.25;1.70;;;23.00;43.30;;;;;;6129748;29;20580;-76
2022/07/09 05:37:45;;;;;;;3.45;1.60;;;23.00;43.20;;;;;;6121722;29;20035;-77
2022/07/09 05:40:45;;;;;;;2.05;1.30;;;23.00;43.20;;;;;;6131469;29;20028;-75
2022/07/09 05:43:47;;;;;;;5.70;1.65;;;23.10;43.20;;;;;;6131190;29;20027;-75
2022/07/09 05:46:48;;;;;;;2.70;1.52;;;23.10;43.10;;;;;;6142779;28;20535;-75
2022/07/09 05:49:49;;;;;;;6.25;1.60;;;23.20;43.10;;;;;;6134984;28;20016;-75
2022/07/09 05:52:50;;;;;;;4.40;1.85;;;23.20;43.10;;;;;;6135516;28;20515;-75
2022/07/09 05:55:50;;;;;;;6.35;1.83;;;23.20;43.10;;;;;;6135963;28;20027;-76
2022/07/09 05:58:52;;;;;;;3.92;2.10;;;23.20;43.10;;;;;;6136771;29;20066;-75
2022/07/09 06:01:53;;;;;;;10.13;2.25;;;23.30;43.70;;;;;;6135666;29;20214;-75
2022/07/09 06:04:53;;;;;;;2.33;1.60;;;23.30;43.00;;;;;;6119966;29;20036;-75
2022/07/09 06:07:55;;;;;;;3.47;1.77;;;23.40;43.00;;;;;;6134518;29;20027;-74
2022/07/09 06:10:56;;;;;;;3.28;1.60;;;23.40;42.90;;;;;;6114125;29;20070;-76
2022/07/09 06:13:57;;;;;;;9.05;1.60;;;23.50;42.90;;;;;;6100380;29;20057;-75
2022/07/09 06:16:59;;;;;;;2.83;1.70;;;23.50;42.90;;;;;;6133133;29;20080;-75
2022/07/09 06:19:59;;;;;;;5.07;1.88;;;23.60;42.90;;;;;;6129355;29;20496;-76
2022/07/09 06:23:00;;;;;;;5.72;1.60;;;23.80;42.70;;;;;;6128628;28;20020;-75
2022/07/09 06:26:01;;;;;;;2.33;1.70;;;23.90;42.40;;;;;;6114512;29;20032;-75
2022/07/09 06:29:02;;;;;;;1.38;1.20;;;24.00;42.30;;;;;;6130929;28;20055;-74
2022/07/09 06:32:03;;;;;;;7.20;1.73;;;24.10;42.10;;;;;;6111454;28;20043;-75
2022/07/09 06:35:04;;;;;;;2.25;1.33;;;24.20;42.00;;;;;;6119775;29;20039;-76
2022/07/09 06:38:05;;;;;;;3.47;1.50;;;24.40;41.90;;;;;;6135657;29;20115;-75
2022/07/09 06:41:06;;;;;;;2.47;1.55;;;24.50;41.60;;;;;;6135934;29;20027;-75
2022/07/09 06:44:07;;;;;;;1.70;1.10;;;24.50;41.40;;;;;;6141784;28;20488;-76
2022/07/09 06:47:08;;;;;;;4.90;1.45;;;24.60;41.30;;;;;;6136480;28;20389;-80
2022/07/09 06:50:09;;;;;;;3.75;1.90;;;24.80;40.90;;;;;;6133386;28;20123;-75
2022/07/09 06:53:10;;;;;;;4.63;1.75;;;24.90;40.30;;;;;;6120320;29;20035;-75
2022/07/09 06:56:10;;;;;;;3.85;1.63;;;24.90;39.80;;;;;;6121288;29;20047;-77
2022/07/09 06:59:11;;;;;;;7.13;1.88;;;24.90;39.50;;;;;;6128771;29;20032;-75
2022/07/09 07:02:13;;;;;;;3.05;1.98;;;25.00;39.30;;;;;;6120084;29;20110;-78
2022/07/09 07:05:14;;;;;;;2.47;1.40;;;25.10;39.30;;;;;;6103395;29;20134;-78
2022/07/09 07:08:14;;;;;;;5.75;1.90;;;25.20;39.00;;;;;;6134190;28;20036;-77
2022/07/09 07:11:16;;;;;;;2.40;1.17;;;25.20;38.80;;;;;;6134380;29;20031;-76
2022/07/09 07:14:17;;;;;;;2.17;1.20;;;25.20;38.80;;;;;;6115653;29;20031;-75
2022/07/09 07:17:18;;;;;;;1.35;1.25;;;25.20;38.80;;;;;;6134623;29;20043;-76
2022/07/09 07:20:22;;;;;;;3.55;1.60;;;25.30;38.80;;;;;;6135306;28;20086;-75
2022/07/09 07:23:23;;;;;;;2.88;1.45;;;25.40;38.60;;;;;;6134008;29;20032;-74
2022/07/09 07:26:24;;;;;;;3.35;1.45;;;25.50;38.60;;;;;;6117740;29;20027;-75
2022/07/09 07:29:26;;;;;;;3.30;1.63;;;25.70;38.50;;;;;;6111653;29;20143;-75
2022/07/09 07:32:27;;;;;;;2.25;1.30;;;25.90;38.10;;;;;;6137046;29;20031;-76
2022/07/09 07:35:28;;;;;;;2.38;1.38;;;26.00;37.90;;;;;;6132577;29;20106;-75
2022/07/09 07:38:29;;;;;;;2.92;1.27;;;26.10;37.90;;;;;;6142855;29;20388;-77
2022/07/09 07:41:30;;;;;;;6.78;1.48;;;26.10;37.60;;;;;;6135053;28;20041;-76
2022/07/09 07:44:30;;;;;;;5.13;1.35;;;26.20;37.50;;;;;;6135400;29;20038;-76
2022/07/09 07:47:31;;;;;;;2.65;1.23;;;26.30;37.50;;;;;;6137419;29;20036;-77
2022/07/09 07:50:32;;;;;;;2.63;1.20;;;26.30;37.40;;;;;;6128384;28;20035;-76
2022/07/09 07:53:33;;;;;;;1.83;1.20;;;26.30;37.40;;;;;;6129933;29;20042;-77
2022/07/09 07:56:36;;;;;;;4.70;1.50;;;26.40;37.40;;;;;;6129628;29;20058;-75
2022/07/09 07:59:37;;;;;;;1.13;1.02;;;26.50;37.30;;;;;;6133723;29;20043;-76
2022/07/09 08:02:38;;;;;;;4.25;1.50;;;26.60;37.30;;;;;;6139789;28;20054;-76
2022/07/09 08:05:39;;;;;;;2.70;1.40;;;26.70;37.30;;;;;;6136125;29;20652;-77
2022/07/09 08:08:40;;;;;;;3.90;1.23;;;26.80;37.00;;;;;;6109085;29;20043;-77
2022/07/09 08:11:41;;;;;;;4.03;1.58;;;26.80;36.90;;;;;;6136902;28;20035;-77
2022/07/09 08:14:42;;;;;;;5.18;1.58;;;26.90;36.80;;;;;;6131814;28;20054;-77
2022/07/09 08:17:43;;;;;;;6.13;1.52;;;27.10;36.80;;;;;;6128528;29;20035;-77
2022/07/09 08:20:43;;;;;;;3.30;1.73;;;27.20;36.60;;;;;;6136822;28;20031;-77
2022/07/09 08:23:56;;;;;;;1.77;1.30;;;27.40;36.50;;;;;;6131870;29;20032;-76
2022/07/09 08:26:58;;;;;;;1.95;1.42;;;27.50;36.30;;;;;;6139540;29;20520;-76
2022/07/09 08:29:59;;;;;;;5.00;1.73;;;27.70;36.20;;;;;;6134407;29;20054;-78
2022/07/09 08:33:00;;;;;;;8.93;1.50;;;27.90;36.00;;;;;;6136902;29;20031;-76
2022/07/09 08:36:01;;;;;;;1.73;1.40;;;28.00;35.70;;;;;;6116413;29;20401;-76
2022/07/09 08:39:02;;;;;;;2.72;1.73;;;28.20;35.50;;;;;;6136271;29;20032;-77
2022/07/09 08:42:10;;;;;;;2.65;1.40;;;28.20;35.30;;;;;;6143137;29;20435;-76
2022/07/09 08:45:13;;;;;;;2.95;1.27;;;28.20;35.20;;;;;;6146911;29;20102;-76
2022/07/09 08:48:14;;;;;;;1.67;1.40;;;28.10;35.10;;;;;;6147174;28;20038;-75
2022/07/09 08:51:17;;;;;;;4.18;1.40;;;28.00;35.30;;;;;;6148907;28;20230;-77
2022/07/09 08:54:20;;;;;;;3.00;1.30;;;27.90;35.50;;;;;;6135532;28;20160;-77
2022/07/09 08:57:21;;;;;;;1.65;1.20;;;27.80;35.50;;;;;;6133457;29;20032;-76
2022/07/09 09:00:22;;;;;;;1.48;1.23;;;27.80;35.50;;;;;;6133349;29;20409;-76
2022/07/09 09:03:23;;;;;;;4.15;1.33;;;27.80;35.30;;;;;;6140664;29;20084;-76
2022/07/09 09:06:24;;;;;;;2.22;1.38;;;27.90;35.20;;;;;;6139820;29;20036;-76
2022/07/09 09:09:25;;;;;;;2.03;1.40;;;28.00;34.90;;;;;;6137010;29;20099;-77
2022/07/09 09:12:28;;;;;;;1.25;1.15;;;28.10;34.60;;;;;;6136291;28;20890;-75
2022/07/09 09:15:29;;;;;;;1.55;1.10;;;28.30;34.30;;;;;;6126576;29;20035;-75
2022/07/09 09:18:30;;;;;;;2.33;1.30;;;28.40;33.90;;;;;;6135657;29;20024;-76
2022/07/09 09:21:31;;;;;;;2.72;1.42;;;28.50;33.60;;;;;;6134570;29;20078;-77
2022/07/09 09:24:32;;;;;;;2.38;1.10;;;28.60;33.40;;;;;;6139828;29;20043;-77
2022/07/09 09:27:33;;;;;;;2.58;1.23;;;28.70;33.30;;;;;;6144423;29;20043;-77
2022/07/09 09:30:41;;;;;;;1.35;1.25;;;28.80;33.20;;;;;;6099715;29;20067;-75
2022/07/09 09:33:42;;;;;;;1.58;1.30;;;28.80;33.20;;;;;;6109456;29;20043;-76
2022/07/09 09:36:50;;;;;;;5.32;1.40;;;28.80;33.10;;;;;;6105834;29;20478;-76
2022/07/09 09:39:54;;;;;;;;;;;28.80;32.90;;;;;;6113405;29;20107;-75
2022/07/09 09:42:59;;;;;;;5.03;1.73;;;28.80;32.80;;;;;;6082649;29;19911;-75
2022/07/09 09:46:03;;;;;;;3.53;1.30;;;28.80;32.90;;;;;;6093688;29;20024;-76
2022/07/09 09:49:08;;;;;;;3.00;1.77;;;28.80;32.90;;;;;;6104837;29;20086;-76
2022/07/09 09:52:10;;;;;;;2.22;1.50;;;28.80;32.70;;;;;;6112982;29;20031;-76
2022/07/09 09:55:13;;;;;;;3.70;1.60;;;28.90;32.70;;;;;;6098422;29;20028;-75
2022/07/09 09:58:14;;;;;;;7.55;1.92;;;29.00;32.80;;;;;;6116218;29;20055;-76
2022/07/09 10:01:15;;;;;;;2.53;1.67;;;29.10;32.70;;;;;;6100932;29;20422;-79
2022/07/09 10:04:16;;;;;;;1.92;1.25;;;29.20;32.50;;;;;;6084763;29;20028;-77
2022/07/09 10:07:17;;;;;;;9.20;1.65;;;29.20;32.40;;;;;;6109723;29;20398;-77
2022/07/09 10:10:20;;;;;;;3.03;1.60;;;29.20;32.30;;;;;;6111002;29;20137;-77
2022/07/09 10:13:21;;;;;;;5.43;1.42;;;29.20;32.40;;;;;;6103795;29;20040;-78
2022/07/09 10:16:37;;;;;;;4.43;1.42;;;29.10;32.40;;;;;;6120433;29;20761;-78
2022/07/09 10:19:38;;;;;;;4.20;1.70;;;29.10;32.50;;;;;;6109520;29;20028;-77
2022/07/09 10:22:44;;;;;;;4.15;1.52;;;29.10;32.40;;;;;;6089992;29;20208;-78
2022/07/09 10:25:50;;;;;;;9.25;1.55;;;29.10;32.40;;;;;;6093706;29;20090;-78
2022/07/09 10:28:51;;;;;;;1.85;1.40;;;29.20;32.40;;;;;;6122529;29;20505;-79
2022/07/09 10:31:57;;;;;;;15.77;1.73;;;29.20;32.40;;;;;;6122012;29;20046;-79
2022/07/09 10:35:04;;;;;;;3.55;1.60;;;29.30;32.50;;;;;;6120386;29;20106;-78
2022/07/09 10:38:05;;;;;;;2.45;1.40;;;29.50;32.50;;;;;;6109091;29;20043;-76
2022/07/09 10:41:06;;;;;;;6.38;1.85;;;29.60;32.40;;;;;;6131137;28;20123;-77
2022/07/09 10:44:07;;;;;;;2.35;1.40;;;29.60;32.20;;;;;;6128261;29;20039;-77
2022/07/09 10:47:08;;;;;;;2.58;1.60;;;29.70;32.30;;;;;;6139469;29;20060;-78
2022/07/09 10:50:09;;;;;;;2.35;1.52;;;29.70;32.30;;;;;;6125113;29;20071;-78
2022/07/09 10:53:11;;;;;;;2.05;1.27;;;29.80;32.40;;;;;;6136287;29;20038;-77
2022/07/09 10:56:18;;;;;;;3.33;1.42;;;29.80;32.40;;;;;;6112249;29;20439;-78
2022/07/09 10:59:19;;;;;;;1.73;1.30;;;29.80;32.30;;;;;;6107315;28;20097;-79
2022/07/09 11:02:21;;;;;;;2.78;1.63;;;29.90;32.30;;;;;;6127913;29;20046;-77
2022/07/09 11:05:23;;;;;;;3.33;1.70;;;29.90;32.20;;;;;;6122613;29;20396;-77
2022/07/09 11:08:25;;;;;;;3.97;1.40;;;30.00;32.30;;;;;;6139654;28;20027;-76
2022/07/09 11:11:25;;;;;;;2.33;1.48;;;30.60;31.60;;;;;;6123884;29;20036;-75
2022/07/09 11:14:26;;;;;;;3.90;1.50;;;31.60;30.20;;;;;;6129424;29;20031;-76
2022/07/09 11:17:27;;;;;;;1.58;1.35;;;32.60;29.20;;;;;;6138516;28;20341;-76
2022/07/09 11:20:29;;;;;;;1.85;1.40;;;33.10;28.50;;;;;;6122729;29;20034;-76
2022/07/09 11:23:31;;;;;;;2.45;1.48;;;33.50;28.20;;;;;;6125523;28;20109;-77
2022/07/09 11:26:32;;;;;;;8.32;1.50;;;33.80;28.00;;;;;;6115402;29;20024;-77
2022/07/09 11:29:33;;;;;;;2.25;1.33;;;34.10;27.80;;;;;;6129424;29;20452;-76
2022/07/09 11:32:34;;;;;;;4.18;1.20;;;34.30;27.60;;;;;;6133258;29;20036;-75
2022/07/09 11:35:36;;;;;;;2.90;1.48;;;34.50;27.50;;;;;;6130293;28;20488;-74
2022/07/09 11:38:52;;;;;;;2.38;1.42;;;34.70;27.40;;;;;;6133609;28;20031;-76
2022/07/09 11:41:55;;;;;;;4.93;1.80;;;34.70;27.40;;;;;;6115953;29;20059;-75
2022/07/09 11:44:59;;;;;;;7.20;2.00;;;34.70;27.50;;;;;;6115713;29;20063;-76
2022/07/09 11:48:13;;;;;;;3.40;1.80;;;34.80;27.50;;;;;;6130101;29;20036;-76
2022/07/09 11:51:13;;;;;;;3.47;1.60;;;34.90;27.40;;;;;;6128404;28;20054;-76
2022/07/09 11:54:14;;;;;;;3.22;1.25;;;34.80;27.40;;;;;;6139664;28;20367;-75
2022/07/09 11:57:22;;;;;;;3.10;1.58;;;34.70;27.60;;;;;;6116812;29;20036;-76
2022/07/09 12:00:28;;;;;;;2.95;1.60;;;34.70;27.80;;;;;;6146263;29;20087;-77
2022/07/09 12:03:32;;;;;;;2.75;1.70;;;34.80;27.80;;;;;;6130924;28;20454;-76
2022/07/09 12:06:33;;;;;;;3.58;1.50;;;34.80;27.60;;;;;;6130571;29;20531;-77
2022/07/09 12:09:34;;;;;;;1.33;1.23;;;34.90;27.60;;;;;;6128679;29;20050;-78
2022/07/09 12:12:36;;;;;;;3.55;1.45;;;34.90;27.60;;;;;;6133807;28;20037;-78
2022/07/09 12:15:37;;;;;;;3.97;1.60;;;34.90;27.60;;;;;;6137184;29;20127;-78
2022/07/09 12:18:38;;;;;;;4.18;1.30;;;35.10;27.40;;;;;;6135379;28;20417;-79
2022/07/09 12:21:39;;;;;;;9.18;2.00;;;35.20;27.10;;;;;;6137805;28;20098;-78
2022/07/09 12:24:40;;;;;;;2.65;1.52;;;35.20;27.10;;;;;;6133397;28;20032;-79
2022/07/09 12:27:42;;;;;;;4.80;1.50;;;35.20;27.00;;;;;;6133044;28;20035;-78
2022/07/09 12:30:44;;;;;;;2.55;1.30;;;35.30;26.90;;;;;;6137487;29;20059;-80
2022/07/09 12:33:45;;;;;;;2.80;1.38;;;35.30;26.70;;;;;;6132960;29;20549;-80
2022/07/09 12:36:45;;;;;;;3.97;1.60;;;35.30;27.10;;;;;;6103679;29;20118;-78
2022/07/09 12:39:49;;;;;;;5.85;1.60;;;35.40;26.40;;;;;;6123113;29;20039;-79
2022/07/09 12:42:50;;;;;;;3.20;1.48;;;35.30;26.30;;;;;;6129430;28;20039;-79
2022/07/09 12:45:50;;;;;;;1.80;1.02;;;35.20;26.50;;;;;;6127505;29;20031;-79
2022/07/09 12:48:51;;;;;;;2.38;1.10;;;34.80;26.70;;;;;;6127732;29;20075;-79
2022/07/09 12:51:52;;;;;;;2.30;1.33;;;34.60;26.90;;;;;;6121778;28;20028;-78
2022/07/09 12:54:53;;;;;;;3.03;1.30;;;34.20;27.20;;;;;;6125574;29;20054;-79
2022/07/09 12:57:54;;;;;;;2.05;1.20;;;33.80;27.40;;;;;;6118795;28;20063;-78
2022/07/09 13:00:55;;;;;;;5.00;1.33;;;33.50;27.70;;;;;;6101695;29;20087;-79
2022/07/09 13:03:56;;;;;;;6.38;1.70;;;33.10;28.00;;;;;;6127307;28;20035;-79
2022/07/09 13:06:57;;;;;;;3.50;1.20;;;32.80;28.20;;;;;;6120133;29;20107;-78
2022/07/09 13:09:58;;;;;;;2.30;1.20;;;32.80;28.20;;;;;;6126264;28;20035;-80
2022/07/09 13:12:58;;;;;;;5.45;1.48;;;33.10;27.80;;;;;;6132522;28;20066;-80
2022/07/09 13:15:59;;;;;;;1.80;1.10;;;33.40;27.90;;;;;;6133287;29;20457;-79
2022/07/09 13:19:00;;;;;;;3.97;1.25;;;33.60;27.00;;;;;;6116687;29;20031;-78
2022/07/09 13:22:01;;;;;;;1.52;1.13;;;33.80;27.00;;;;;;6107891;28;20028;-81
2022/07/09 13:25:03;;;;;;;1.80;1.25;;;33.80;26.80;;;;;;6133341;29;20123;-80
2022/07/09 13:28:04;;;;;;;2.42;1.10;;;33.80;26.80;;;;;;6137447;29;20039;-78
2022/07/09 13:31:05;;;;;;;3.42;0.93;;;34.00;26.70;;;;;;6117469;29;20047;-78
2022/07/09 13:34:06;;;;;;;1.90;1.20;;;34.20;26.40;;;;;;6134043;28;20035;-80
2022/07/09 13:37:07;;;;;;;2.47;1.15;;;34.30;26.40;;;;;;6137136;29;20046;-77
2022/07/09 13:40:10;;;;;;;1.40;1.17;;;34.80;25.80;;;;;;6123629;28;20099;-78
2022/07/09 13:43:11;;;;;;;3.58;1.10;;;35.90;24.90;;;;;;6131174;28;20107;-80
2022/07/09 13:46:12;;;;;;;2.17;1.20;;;36.90;23.80;;;;;;6121492;29;20434;-78
2022/07/09 13:49:13;;;;;;;2.95;1.05;;;37.70;22.90;;;;;;6140103;29;20039;-78
2022/07/09 13:52:14;;;;;;;4.13;1.20;;;38.40;22.50;;;;;;6134920;29;20143;-79
2022/07/09 13:55:15;;;;;;;1.90;1.10;;;38.90;22.00;;;;;;6146838;29;20077;-78
2022/07/09 13:58:16;;;;;;;2.67;1.30;;;39.10;21.70;;;;;;6126494;29;20032;-77
2022/07/09 14:01:19;;;;;;;2.60;1.02;;;39.00;21.70;;;;;;6112016;29;20059;-79
2022/07/09 14:04:20;;;;;;;1.77;1.30;;;38.80;21.90;;;;;;6134889;28;20023;-79
2022/07/09 14:07:21;;;;;;;3.72;1.42;;;38.80;21.80;;;;;;6129710;28;20032;-80
2022/07/09 14:10:23;;;;;;;3.90;1.10;;;38.60;21.90;;;;;;6125248;29;20381;-81
2022/07/09 14:13:25;;;;;;;4.07;1.20;;;38.40;22.20;;;;;;6121426;29;20051;-79
2022/07/09 14:16:26;;;;;;;2.15;1.00;;;38.60;22.00;;;;;;6139049;29;20038;-79
2022/07/09 14:19:28;;;;;;;5.35;1.20;;;38.80;21.90;;;;;;6135545;29;20032;-81
2022/07/09 14:22:29;;;;;;;2.15;1.27;;;39.20;21.80;;;;;;6127225;29;20027;-81
2022/07/09 14:25:30;;;;;;;2.15;1.35;;;39.40;21.60;;;;;;6108323;28;20028;-79
2022/07/09 14:28:31;;;;;;;1.63;1.00;;;39.70;21.40;;;;;;6128784;29;20051;-78
2022/07/09 14:31:32;;;;;;;1.30;1.20;;;40.20;21.10;;;;;;6127730;28;20032;-77
2022/07/09 14:34:33;;;;;;;1.30;1.00;;;40.30;20.80;;;;;;6131829;29;20034;-79
2022/07/09 14:37:34;;;;;;;1.92;1.20;;;40.50;20.80;;;;;;6140059;29;20059;-79
2022/07/09 14:40:36;;;;;;;9.82;1.33;;;40.40;20.60;;;;;;6117326;29;20032;-77
2022/07/09 14:43:40;;;;;;;1.52;1.08;;;40.50;20.70;;;;;;6119443;28;20401;-80
2022/07/09 14:46:41;;;;;;;2.45;0.95;;;40.60;20.60;;;;;;6142716;28;20031;-78
2022/07/09 14:49:42;;;;;;;6.10;1.30;;;40.70;20.40;;;;;;6132686;29;20042;-77
2022/07/09 14:52:45;;;;;;;2.25;1.00;;;40.70;20.60;;;;;;6133623;28;20028;-79
2022/07/09 14:55:46;;;;;;;1.65;0.93;;;40.20;20.70;;;;;;6129917;29;20038;-79
2022/07/09 14:58:48;;;;;;;1.33;1.20;;;39.30;21.40;;;;;;6126308;29;20125;-79
2022/07/09 15:01:49;;;;;;;3.50;1.02;;;38.40;22.20;;;;;;6133520;28;20028;-79
2022/07/09 15:04:49;;;;;;;3.45;1.48;;;37.70;22.90;;;;;;6134539;28;20330;-79
2022/07/09 15:07:50;;;;;;;3.42;1.20;;;36.90;23.70;;;;;;6141291;29;20099;-79
2022/07/09 15:10:52;;;;;;;4.95;1.20;;;36.30;24.30;;;;;;6133893;29;20397;-80
2022/07/09 15:13:53;;;;;;;2.10;1.25;;;36.10;24.40;;;;;;6122559;29;20031;-76
2022/07/09 15:16:53;;;;;;;2.67;1.20;;;36.00;24.80;;;;;;6138910;28;20440;-74
2022/07/09 15:19:54;;;;;;;2.13;1.02;;;35.70;25.00;;;;;;6126840;28;20031;-74
2022/07/09 15:22:56;;;;;;;3.20;1.13;;;35.40;25.30;;;;;;6143940;28;20479;-73
2022/07/09 15:25:57;;;;;;;2.20;1.40;;;35.20;26.00;;;;;;6136674;28;20035;-74
2022/07/09 15:28:58;;;;;;;5.63;1.35;;;35.20;25.70;;;;;;6127581;28;20117;-74
2022/07/09 15:31:59;;;;;;;3.80;1.27;;;35.70;25.50;;;;;;6153729;28;20456;-75
2022/07/09 15:35:00;;;;;;;2.67;1.17;;;36.40;24.70;;;;;;6151186;28;20479;-74
2022/07/09 15:38:01;;;;;;;4.32;1.48;;;37.00;24.10;;;;;;6156397;28;20039;-75
2022/07/09 15:41:02;;;;;;;3.90;1.00;;;37.60;23.60;;;;;;6135576;28;20047;-74
2022/07/09 15:44:06;;;;;;;2.33;1.42;;;37.90;23.30;;;;;;6149003;28;20065;-76
2022/07/09 15:47:07;;;;;;;1.75;1.13;;;38.30;23.00;;;;;;6151722;28;20031;-76